createdAt,value
2018-06-30T00:00:01.139Z,10.18
2018-06-30T00:02:29.550Z,11.13
2018-06-30T00:04:57.957Z,11.30
2018-06-30T00:07:26.356Z,15.90
2018-06-30T00:09:54.776Z,12.00
2018-06-30T00:12:23.383Z,15.20
2018-06-30T00:14:51.555Z,14.40
2018-06-30T00:17:19.969Z,13.15
2018-06-30T00:19:48.381Z,16.40
2018-06-30T00:22:16.826Z,12.65
2018-06-30T00:24:45.192Z,15.78
2018-06-30T00:27:19.103Z,12.93
2018-06-30T00:29:47.496Z,13.95
2018-06-30T00:32:15.912Z,11.48
2018-06-30T00:34:44.348Z,16.20
2018-06-30T00:37:19.349Z,16.77
2018-06-30T00:39:47.961Z,11.93
2018-06-30T00:42:16.345Z,18.07
2018-06-30T00:44:44.748Z,14.63
2018-06-30T00:47:13.172Z,13.80
2018-06-30T00:49:41.303Z,13.18
2018-06-30T00:52:09.656Z,12.23
2018-06-30T00:54:38.107Z,18.17
2018-06-30T00:57:06.218Z,14.27
2018-06-30T00:59:34.615Z,13.53
2018-06-30T01:02:02.992Z,16.20
2018-06-30T01:04:31.394Z,16.07
2018-06-30T01:06:59.792Z,20.67
2018-06-30T01:09:27.906Z,16.30
2018-06-30T01:11:56.320Z,15.55
2018-06-30T01:14:24.719Z,13.70
2018-06-30T01:16:52.823Z,13.35
2018-06-30T01:19:21.187Z,12.82
2018-06-30T01:21:49.302Z,16.70
2018-06-30T01:24:19.464Z,19.75
2018-06-30T01:26:47.535Z,16.60
2018-06-30T01:29:15.620Z,13.50
2018-06-30T01:31:44.005Z,16.10
2018-06-30T01:34:12.414Z,14.98
2018-06-30T01:36:40.851Z,13.70
2018-06-30T01:39:10.255Z,11.47
2018-06-30T01:41:38.382Z,14.20
2018-06-30T01:44:06.765Z,15.87
2018-06-30T01:46:35.185Z,16.25
2018-06-30T01:49:03.271Z,18.13
2018-06-30T01:51:31.666Z,19.27
2018-06-30T01:54:00.061Z,16.85
2018-06-30T01:56:28.444Z,18.53
2018-06-30T01:58:56.865Z,18.20
2018-06-30T02:01:24.965Z,17.97
2018-06-30T02:03:53.321Z,14.27
2018-06-30T02:06:21.411Z,17.37
2018-06-30T02:08:49.765Z,13.98
2018-06-30T02:11:17.848Z,19.52
2018-06-30T02:13:45.946Z,14.38
2018-06-30T02:16:14.392Z,13.15
2018-06-30T02:18:42.478Z,17.50
2018-06-30T02:21:10.861Z,15.55
2018-06-30T02:23:39.249Z,19.75
2018-06-30T02:26:07.718Z,18.95
2018-06-30T02:28:36.132Z,22.15
2018-06-30T02:31:04.584Z,18.87
2018-06-30T02:33:33.002Z,19.75
2018-06-30T02:36:01.411Z,18.57
2018-06-30T02:38:29.872Z,18.43
2018-06-30T02:40:58.285Z,18.57
2018-06-30T02:43:26.401Z,21.12
2018-06-30T02:45:54.798Z,19.73
2018-06-30T02:48:23.189Z,21.87
2018-06-30T02:50:51.627Z,18.27
2018-06-30T02:53:20.020Z,20.95
2018-06-30T02:55:48.454Z,24.67
2018-06-30T02:58:16.840Z,17.15
2018-06-30T03:00:45.211Z,18.00
2018-06-30T03:03:13.643Z,18.85
2018-06-30T03:05:42.009Z,17.25
2018-06-30T03:08:10.392Z,20.85
2018-06-30T03:10:38.773Z,20.20
2018-06-30T03:13:07.253Z,21.97
2018-06-30T03:15:35.788Z,16.55
2018-06-30T03:18:04.267Z,18.42
2018-06-30T03:20:32.363Z,20.32
2018-06-30T03:23:00.780Z,21.33
2018-06-30T03:25:29.216Z,20.48
2018-06-30T03:27:57.631Z,22.42
2018-06-30T03:30:26.037Z,22.22
2018-06-30T03:32:54.457Z,19.63
2018-06-30T03:35:22.852Z,19.80
2018-06-30T03:37:51.217Z,24.02
2018-06-30T03:40:19.665Z,25.27
2018-06-30T03:42:48.052Z,18.65
2018-06-30T03:45:16.137Z,26.57
2018-06-30T03:47:44.569Z,20.80
2018-06-30T03:50:13.006Z,23.52
2018-06-30T03:52:41.467Z,19.23
2018-06-30T03:55:09.575Z,23.73
2018-06-30T03:57:37.980Z,20.95
2018-06-30T04:00:06.714Z,22.10
2018-06-30T04:02:35.136Z,18.90
2018-06-30T04:05:03.588Z,18.48
2018-06-30T04:07:32.008Z,23.27
2018-06-30T04:10:00.442Z,21.20
2018-06-30T04:12:28.820Z,17.55
2018-06-30T04:14:57.210Z,20.12
2018-06-30T04:17:25.616Z,20.83
2018-06-30T04:19:54.001Z,15.60
2018-06-30T04:22:22.369Z,20.90
2018-06-30T04:24:50.769Z,18.25
2018-06-30T04:27:19.176Z,18.07
2018-06-30T04:29:47.291Z,17.32
2018-06-30T04:32:15.667Z,18.53
2018-06-30T04:34:44.052Z,18.07
2018-06-30T04:37:12.477Z,12.40
2018-06-30T04:39:40.598Z,14.95
2018-06-30T04:42:09.021Z,27.22
2018-06-30T04:44:37.364Z,15.45
2018-06-30T04:47:05.776Z,14.23
2018-06-30T04:49:34.205Z,15.30
2018-06-30T04:52:02.583Z,12.35
2018-06-30T04:54:31.003Z,11.63
2018-06-30T04:56:59.489Z,11.83
2018-06-30T04:59:27.906Z,13.13
2018-06-30T05:01:56.306Z,12.35
2018-06-30T05:04:24.687Z,10.90
2018-06-30T05:06:53.101Z,10.63
2018-06-30T05:09:21.517Z,15.30
2018-06-30T05:11:49.906Z,10.08
2018-06-30T05:14:18.317Z,11.20
2018-06-30T05:16:46.756Z,9.28
2018-06-30T05:19:15.149Z,10.68
2018-06-30T05:21:43.526Z,8.30
2018-06-30T05:24:11.919Z,6.90
2018-06-30T05:26:40.258Z,8.48
2018-06-30T05:29:08.351Z,8.25
2018-06-30T05:31:36.775Z,7.83
2018-06-30T05:34:05.387Z,8.80
2018-06-30T05:36:33.761Z,8.87
2018-06-30T05:39:02.228Z,13.60
2018-06-30T05:41:30.649Z,6.80
2018-06-30T05:43:59.040Z,9.03
2018-06-30T05:46:27.504Z,11.95
2018-06-30T05:48:55.615Z,8.80
2018-06-30T05:51:23.990Z,10.32
2018-06-30T05:53:52.401Z,9.10
2018-06-30T05:56:20.775Z,7.67
2018-06-30T05:58:49.169Z,8.40
2018-06-30T06:01:17.608Z,7.90
2018-06-30T06:03:46.017Z,9.58
2018-06-30T06:06:14.445Z,8.55
2018-06-30T06:08:42.841Z,14.60
2018-06-30T06:11:11.224Z,9.33
2018-06-30T06:13:39.618Z,6.87
2018-06-30T06:16:08.031Z,6.10
2018-06-30T06:18:42.559Z,7.17
2018-06-30T06:21:11.016Z,5.13
2018-06-30T06:23:39.383Z,5.80
2018-06-30T06:26:07.847Z,4.65
2018-06-30T06:28:36.258Z,5.00
2018-06-30T06:31:07.827Z,5.55
2018-06-30T06:33:35.936Z,7.05
2018-06-30T06:36:04.366Z,7.45
2018-06-30T06:38:32.778Z,4.95
2018-06-30T06:41:01.187Z,5.72
2018-06-30T06:43:29.596Z,13.40
2018-06-30T06:45:58.075Z,6.42
2018-06-30T06:48:26.469Z,6.72
2018-06-30T06:50:54.902Z,5.78
2018-06-30T06:53:23.371Z,9.50
2018-06-30T06:55:51.780Z,5.47
2018-06-30T06:58:20.217Z,8.95
2018-06-30T07:00:48.617Z,7.33
2018-06-30T07:03:17.021Z,6.17
2018-06-30T07:05:45.472Z,7.97
2018-06-30T07:08:13.980Z,7.50
2018-06-30T07:10:42.392Z,4.03
2018-06-30T07:13:10.801Z,6.28
2018-06-30T07:15:39.181Z,6.35
2018-06-30T07:18:07.616Z,12.00
2018-06-30T07:20:36.002Z,5.58
2018-06-30T07:23:04.439Z,9.30
2018-06-30T07:25:32.891Z,6.15
2018-06-30T07:28:01.269Z,5.17
2018-06-30T07:30:29.714Z,4.28
2018-06-30T07:32:58.081Z,6.90
2018-06-30T07:35:26.479Z,5.55
2018-06-30T07:37:54.867Z,4.20
2018-06-30T07:40:22.976Z,4.70
2018-06-30T07:42:51.349Z,7.50
2018-06-30T07:45:19.820Z,6.35
2018-06-30T07:47:48.255Z,6.22
2018-06-30T07:50:16.729Z,7.08
2018-06-30T07:52:45.131Z,9.53
2018-06-30T07:55:13.553Z,5.80
2018-06-30T07:57:41.928Z,8.63
2018-06-30T08:00:10.385Z,5.85
2018-06-30T08:02:38.820Z,4.47
2018-06-30T08:05:07.265Z,5.37
2018-06-30T08:07:35.686Z,5.47
2018-06-30T08:10:04.454Z,11.57
2018-06-30T08:12:32.851Z,7.67
2018-06-30T08:15:01.231Z,5.60
2018-06-30T08:17:29.662Z,5.53
2018-06-30T08:19:58.072Z,8.48
2018-06-30T08:22:26.500Z,7.05
2018-06-30T08:24:54.923Z,5.85
2018-06-30T08:27:23.465Z,7.90
2018-06-30T08:29:51.878Z,6.10
2018-06-30T08:32:20.293Z,4.53
2018-06-30T08:34:48.711Z,6.10
2018-06-30T08:37:16.805Z,7.05
2018-06-30T08:39:45.228Z,6.47
2018-06-30T08:42:13.675Z,4.65
2018-06-30T08:44:42.260Z,3.80
2018-06-30T08:47:10.705Z,4.05
2018-06-30T08:49:38.806Z,7.00
2018-06-30T08:52:08.088Z,6.30
2018-06-30T08:54:36.486Z,6.05
2018-06-30T08:57:05.062Z,5.13
2018-06-30T08:59:33.464Z,8.90
2018-06-30T09:02:01.874Z,7.28
2018-06-30T09:04:30.276Z,3.10
2018-06-30T09:06:58.624Z,4.25
2018-06-30T09:09:27.009Z,5.63
2018-06-30T09:11:55.492Z,4.73
2018-06-30T09:14:23.832Z,4.07
2018-06-30T09:16:52.213Z,4.30
2018-06-30T09:19:20.623Z,9.43
2018-06-30T09:21:49.002Z,5.27
2018-06-30T09:24:17.526Z,5.50
2018-06-30T09:26:45.820Z,4.00
2018-06-30T09:29:14.227Z,3.52
2018-06-30T09:31:42.720Z,5.60
2018-06-30T09:34:11.114Z,4.42
2018-06-30T09:36:39.513Z,9.00
2018-06-30T09:39:08.522Z,4.67
2018-06-30T09:41:36.976Z,4.95
2018-06-30T09:44:05.767Z,5.95
2018-06-30T09:46:34.204Z,5.75
2018-06-30T09:49:02.626Z,4.70
2018-06-30T09:51:30.681Z,2.35
2018-06-30T09:53:59.081Z,3.10
2018-06-30T09:56:27.181Z,3.58
2018-06-30T09:58:55.550Z,3.60
2018-06-30T10:01:23.936Z,4.60
2018-06-30T10:03:52.312Z,4.43
2018-06-30T10:06:20.736Z,4.10
2018-06-30T10:08:49.152Z,3.43
2018-06-30T10:11:17.574Z,3.90
2018-06-30T10:13:45.977Z,4.95
2018-06-30T10:16:14.435Z,3.37
2018-06-30T10:18:42.814Z,2.17
2018-06-30T10:21:11.248Z,4.47
2018-06-30T10:23:39.648Z,3.75
2018-06-30T10:26:08.011Z,3.90
2018-06-30T10:28:36.424Z,2.98
2018-06-30T10:31:05.018Z,7.78
2018-06-30T10:33:33.392Z,5.12
2018-06-30T10:36:01.820Z,5.40
2018-06-30T10:38:30.224Z,6.05
2018-06-30T10:40:58.628Z,3.30
2018-06-30T10:43:26.997Z,3.00
2018-06-30T10:45:55.387Z,2.55
2018-06-30T10:48:23.779Z,4.55
2018-06-30T10:50:52.147Z,3.90
2018-06-30T10:53:20.568Z,3.35
2018-06-30T10:55:48.718Z,2.45
2018-06-30T10:58:17.161Z,2.60
2018-06-30T11:00:45.551Z,1.40
2018-06-30T11:03:14.082Z,1.60
2018-06-30T11:05:42.189Z,2.43
2018-06-30T11:08:10.608Z,6.70
2018-06-30T11:10:38.956Z,4.87
2018-06-30T11:13:07.387Z,4.92
2018-06-30T11:15:35.812Z,3.05
2018-06-30T11:18:04.248Z,7.47
2018-06-30T11:20:32.353Z,4.40
2018-06-30T11:23:00.714Z,2.98
2018-06-30T11:25:29.124Z,1.70
2018-06-30T11:27:57.564Z,4.07
2018-06-30T11:30:25.687Z,2.40
2018-06-30T11:32:54.103Z,1.60
2018-06-30T11:35:22.854Z,3.52
2018-06-30T11:37:51.224Z,2.77
2018-06-30T11:40:19.622Z,1.90
2018-06-30T11:42:48.011Z,1.25
2018-06-30T11:45:16.400Z,2.10
2018-06-30T11:47:44.831Z,2.90
2018-06-30T11:50:13.256Z,2.30
2018-06-30T11:52:41.671Z,2.12
2018-06-30T11:55:10.111Z,2.90
2018-06-30T11:57:38.498Z,4.72
2018-06-30T12:00:08.128Z,2.70
2018-06-30T12:02:36.542Z,2.50
2018-06-30T12:05:06.016Z,1.22
2018-06-30T12:07:34.402Z,3.20
2018-06-30T12:10:02.801Z,2.80
2018-06-30T12:12:31.215Z,3.87
2018-06-30T12:14:59.663Z,5.08
2018-06-30T12:17:28.128Z,5.50
2018-06-30T12:19:56.553Z,2.70
2018-06-30T12:22:24.986Z,1.40
2018-06-30T12:24:53.356Z,3.00
2018-06-30T12:27:21.723Z,1.20
2018-06-30T12:29:50.092Z,1.30
2018-06-30T12:32:18.231Z,3.80
2018-06-30T12:34:46.596Z,2.27
2018-06-30T12:37:15.019Z,3.70
2018-06-30T12:39:43.446Z,3.95
2018-06-30T12:42:11.853Z,1.50
2018-06-30T12:44:40.231Z,2.52
2018-06-30T12:47:08.641Z,2.00
2018-06-30T12:49:36.818Z,3.22
2018-06-30T12:52:04.970Z,3.10
2018-06-30T12:54:33.516Z,1.12
2018-06-30T12:57:01.757Z,1.30
2018-06-30T12:59:30.139Z,2.30
2018-06-30T13:01:58.634Z,2.70
2018-06-30T13:04:27.009Z,3.40
2018-06-30T13:06:55.402Z,3.95
2018-06-30T13:09:23.807Z,1.00
2018-06-30T13:11:52.726Z,3.73
2018-06-30T13:14:21.122Z,2.00
2018-06-30T13:16:49.594Z,1.70
2018-06-30T13:19:18.029Z,4.65
2018-06-30T13:21:46.444Z,1.60
2018-06-30T13:24:14.559Z,2.90
2018-06-30T13:26:43.019Z,2.70
2018-06-30T13:29:11.393Z,1.20
2018-06-30T13:31:39.756Z,2.50
2018-06-30T13:34:08.151Z,3.15
2018-06-30T13:36:36.724Z,1.40
2018-06-30T13:39:08.963Z,5.37
2018-06-30T13:41:37.396Z,3.80
2018-06-30T13:44:06.052Z,2.22
2018-06-30T13:46:34.150Z,6.72
2018-06-30T13:49:02.700Z,2.50
2018-06-30T13:51:31.337Z,1.27
2018-06-30T13:53:59.603Z,3.50
2018-06-30T13:56:28.055Z,2.00
2018-06-30T13:58:56.154Z,15.03
2018-06-30T14:01:24.620Z,1.87
2018-06-30T14:03:53.033Z,1.80
2018-06-30T14:06:21.485Z,3.10
2018-06-30T14:08:49.837Z,5.40
2018-06-30T14:11:18.264Z,3.50
2018-06-30T14:13:46.639Z,7.50
2018-06-30T14:16:15.119Z,2.13
2018-06-30T14:18:43.543Z,0.90
2018-06-30T14:21:11.983Z,2.80
2018-06-30T14:23:40.384Z,2.67
2018-06-30T14:26:08.778Z,1.20
2018-06-30T14:28:37.188Z,2.58
2018-06-30T14:31:05.847Z,1.35
2018-06-30T14:33:34.240Z,1.10
2018-06-30T14:36:02.684Z,3.17
2018-06-30T14:38:31.105Z,3.60
2018-06-30T14:40:59.537Z,2.25
2018-06-30T14:43:27.949Z,1.40
2018-06-30T14:45:56.432Z,6.58
2018-06-30T14:48:24.856Z,2.10
2018-06-30T14:50:53.274Z,1.70
2018-06-30T14:53:21.739Z,3.87
2018-06-30T14:55:50.104Z,1.60
2018-06-30T14:58:18.509Z,1.07
2018-06-30T15:00:46.921Z,0.90
2018-06-30T15:03:15.034Z,1.80
2018-06-30T15:05:43.465Z,2.77
2018-06-30T15:08:11.940Z,2.65
2018-06-30T15:10:40.266Z,2.58
2018-06-30T15:13:08.696Z,2.13
2018-06-30T15:15:37.068Z,5.33
2018-06-30T15:18:05.744Z,1.90
2018-06-30T15:20:34.151Z,3.93
2018-06-30T15:23:02.234Z,7.05
2018-06-30T15:25:30.626Z,3.20
2018-06-30T15:27:58.991Z,2.00
2018-06-30T15:30:27.386Z,3.30
2018-06-30T15:33:02.327Z,1.10
2018-06-30T15:35:30.760Z,1.55
2018-06-30T15:37:58.853Z,2.47
2018-06-30T15:40:27.272Z,1.50
2018-06-30T15:42:55.658Z,1.00
2018-06-30T15:45:24.071Z,2.50
2018-06-30T15:47:52.200Z,1.65
2018-06-30T15:50:20.581Z,2.90
2018-06-30T15:52:49.013Z,4.60
2018-06-30T15:55:17.407Z,2.15
2018-06-30T15:57:45.797Z,2.40
2018-06-30T16:00:14.227Z,1.00
2018-06-30T16:02:42.651Z,0.90
2018-06-30T16:05:11.056Z,2.40
2018-06-30T16:07:39.519Z,2.47
2018-06-30T16:10:08.124Z,1.80
2018-06-30T16:12:36.512Z,1.80
2018-06-30T16:15:05.141Z,2.80
2018-06-30T16:17:33.541Z,6.10
2018-06-30T16:20:01.940Z,5.03
2018-06-30T16:22:30.327Z,5.50
2018-06-30T16:24:58.677Z,2.10
2018-06-30T16:27:27.114Z,2.02
2018-06-30T16:29:55.512Z,2.50
2018-06-30T16:32:23.940Z,1.40
2018-06-30T16:34:52.731Z,2.50
2018-06-30T16:37:21.121Z,2.90
2018-06-30T16:39:49.510Z,4.10
2018-06-30T16:42:17.997Z,5.10
2018-06-30T16:44:46.378Z,5.25
2018-06-30T16:47:14.823Z,4.53
2018-06-30T16:49:43.242Z,3.70
2018-06-30T16:52:11.358Z,1.55
2018-06-30T16:54:39.742Z,2.30
2018-06-30T16:57:08.159Z,1.50
2018-06-30T16:59:36.571Z,2.33
2018-06-30T17:02:04.957Z,1.87
2018-06-30T17:04:33.357Z,1.57
2018-06-30T17:07:01.746Z,2.15
2018-06-30T17:09:30.132Z,1.10
2018-06-30T17:11:58.527Z,1.10
2018-06-30T17:14:26.934Z,1.17
2018-06-30T17:16:55.036Z,3.67
2018-06-30T17:19:23.406Z,3.80
2018-06-30T17:21:51.782Z,3.20
2018-06-30T17:24:20.141Z,3.55
2018-06-30T17:26:48.867Z,2.80
2018-06-30T17:29:17.261Z,2.53
2018-06-30T17:31:45.698Z,1.70
2018-06-30T17:34:14.078Z,1.42
2018-06-30T17:36:42.474Z,4.10
2018-06-30T17:39:11.185Z,3.10
2018-06-30T17:41:40.312Z,3.17
2018-06-30T17:44:09.056Z,1.70
2018-06-30T17:46:37.591Z,2.17
2018-06-30T17:49:06.170Z,2.30
2018-06-30T17:51:34.640Z,2.20
2018-06-30T17:54:03.076Z,1.93
2018-06-30T17:56:31.457Z,1.80
2018-06-30T17:58:59.837Z,1.95
2018-06-30T18:01:28.208Z,1.82
2018-06-30T18:03:56.595Z,1.32
2018-06-30T18:06:24.984Z,1.60
2018-06-30T18:08:53.406Z,2.80
2018-06-30T18:11:21.832Z,3.00
2018-06-30T18:13:50.273Z,3.62
2018-06-30T18:16:18.672Z,2.58
2018-06-30T18:18:47.195Z,3.70
2018-06-30T18:21:15.629Z,2.22
2018-06-30T18:23:44.043Z,2.30
2018-06-30T18:26:12.499Z,2.47
2018-06-30T18:28:40.881Z,3.00
2018-06-30T18:31:09.320Z,3.15
2018-06-30T18:33:37.724Z,4.12
2018-06-30T18:36:06.200Z,7.70
2018-06-30T18:38:34.599Z,3.67
2018-06-30T18:41:03.000Z,3.10
2018-06-30T18:43:31.399Z,2.90
2018-06-30T18:45:59.799Z,3.00
2018-06-30T18:48:28.180Z,4.75
2018-06-30T18:50:56.544Z,9.63
2018-06-30T18:53:24.935Z,6.73
2018-06-30T18:55:53.011Z,4.20
2018-06-30T18:58:21.395Z,3.85
2018-06-30T19:00:49.712Z,4.47
2018-06-30T19:03:18.201Z,2.12
2018-06-30T19:05:46.587Z,2.60
2018-06-30T19:08:15.008Z,2.50
2018-06-30T19:10:43.549Z,4.72
2018-06-30T19:13:11.943Z,1.82
2018-06-30T19:15:40.380Z,3.52
2018-06-30T19:18:08.740Z,3.10
2018-06-30T19:20:37.152Z,4.75
2018-06-30T19:23:05.540Z,2.87
2018-06-30T19:25:33.904Z,1.60
2018-06-30T19:28:02.311Z,3.98
2018-06-30T19:30:30.697Z,4.00
2018-06-30T19:32:59.492Z,2.47
2018-06-30T19:35:27.887Z,8.47
2018-06-30T19:37:55.974Z,1.30
2018-06-30T19:40:24.386Z,3.50
2018-06-30T19:42:52.811Z,1.40
2018-06-30T19:45:21.258Z,1.42
2018-06-30T19:47:49.620Z,2.00
2018-06-30T19:50:18.023Z,1.47
2018-06-30T19:52:46.408Z,4.15
2018-06-30T19:55:14.814Z,6.60
2018-06-30T19:57:43.273Z,3.50
2018-06-30T20:00:11.644Z,2.77
2018-06-30T20:02:40.077Z,1.20
2018-06-30T20:05:08.460Z,1.50
2018-06-30T20:07:42.244Z,1.60
2018-06-30T20:10:10.381Z,1.52
2018-06-30T20:12:38.842Z,4.80
2018-06-30T20:15:07.270Z,1.90
2018-06-30T20:17:35.352Z,5.90
2018-06-30T20:20:03.454Z,1.52
2018-06-30T20:22:31.803Z,3.20
2018-06-30T20:25:00.200Z,2.92
2018-06-30T20:27:28.627Z,1.50
2018-06-30T20:29:57.053Z,2.42
2018-06-30T20:32:25.443Z,2.12
2018-06-30T20:34:53.835Z,3.70
2018-06-30T20:37:22.202Z,4.10
2018-06-30T20:39:50.670Z,5.33
2018-06-30T20:42:19.085Z,4.65
2018-06-30T20:44:47.502Z,4.97
2018-06-30T20:47:15.889Z,4.70
2018-06-30T20:49:44.467Z,2.80
2018-06-30T20:52:12.877Z,2.20
2018-06-30T20:54:41.263Z,2.42
2018-06-30T20:57:09.804Z,5.28
2018-06-30T20:59:38.371Z,5.37
2018-06-30T21:02:07.097Z,5.50
2018-06-30T21:04:35.493Z,2.90
2018-06-30T21:07:04.060Z,2.70
2018-06-30T21:09:32.478Z,3.15
2018-06-30T21:12:00.987Z,6.90
2018-06-30T21:14:29.390Z,2.30
2018-06-30T21:16:57.792Z,3.30
2018-06-30T21:19:26.203Z,2.30
2018-06-30T21:21:54.559Z,1.40
2018-06-30T21:24:22.940Z,5.20
2018-06-30T21:26:51.487Z,3.60
2018-06-30T21:29:19.851Z,5.60
2018-06-30T21:31:48.263Z,2.90
2018-06-30T21:34:16.657Z,2.20
2018-06-30T21:36:45.264Z,1.52
2018-06-30T21:39:13.720Z,1.52
2018-06-30T21:41:42.104Z,1.60
2018-06-30T21:44:10.512Z,2.30
2018-06-30T21:46:39.003Z,2.40
2018-06-30T21:49:07.419Z,1.80
2018-06-30T21:51:35.523Z,2.10
2018-06-30T21:54:04.012Z,2.33
2018-06-30T21:56:32.401Z,3.10
2018-06-30T21:59:00.786Z,1.10
2018-06-30T22:01:29.153Z,3.97
2018-06-30T22:03:58.357Z,1.10
2018-06-30T22:06:26.755Z,1.50
2018-06-30T22:08:55.173Z,2.03
2018-06-30T22:11:23.702Z,6.63
2018-06-30T22:13:52.033Z,1.60
2018-06-30T22:16:20.441Z,1.82
2018-06-30T22:18:48.845Z,4.78
2018-06-30T22:21:17.034Z,4.25
2018-06-30T22:23:45.476Z,4.22
2018-06-30T22:26:14.008Z,1.70
2018-06-30T22:28:42.364Z,6.00
2018-06-30T22:31:10.786Z,6.65
2018-06-30T22:33:39.197Z,2.47
2018-06-30T22:36:07.590Z,2.70
2018-06-30T22:38:36.051Z,6.70
2018-06-30T22:41:04.520Z,1.70
2018-06-30T22:43:32.925Z,1.20
2018-06-30T22:46:01.351Z,4.83
2018-06-30T22:48:29.770Z,4.70
2018-06-30T22:50:58.193Z,5.20
2018-06-30T22:53:26.540Z,1.95
2018-06-30T22:55:54.924Z,1.67
2018-06-30T22:58:23.335Z,2.40
2018-06-30T23:00:51.709Z,1.13
2018-06-30T23:03:20.066Z,1.50
2018-06-30T23:05:48.475Z,1.47
2018-06-30T23:08:16.858Z,1.80
2018-06-30T23:10:45.288Z,1.37
2018-06-30T23:13:13.691Z,2.70
2018-06-30T23:15:42.076Z,7.10
2018-06-30T23:18:10.519Z,4.40
2018-06-30T23:20:38.928Z,1.32
2018-06-30T23:23:09.342Z,2.70
2018-06-30T23:25:38.422Z,3.17
2018-06-30T23:28:07.224Z,3.70
2018-06-30T23:30:35.897Z,3.10
2018-06-30T23:33:04.336Z,3.87
2018-06-30T23:35:33.668Z,3.45
2018-06-30T23:38:02.747Z,2.65
2018-06-30T23:40:31.174Z,1.60
2018-06-30T23:42:59.360Z,2.20
2018-06-30T23:45:27.750Z,2.40
2018-06-30T23:47:56.108Z,2.80
2018-06-30T23:50:24.510Z,3.00
2018-06-30T23:52:52.946Z,3.93
2018-06-30T23:55:21.346Z,2.60
2018-06-30T23:57:49.457Z,3.70
